createdAt,value
2018-08-23T00:00:50.793Z,88.61
2018-08-23T00:03:25.793Z,88.12
2018-08-23T00:05:55.321Z,88.49
2018-08-23T00:08:25.701Z,88.73
2018-08-23T00:10:55.188Z,89.57
2018-08-23T00:13:24.389Z,90.39
2018-08-23T00:15:53.097Z,89.99
2018-08-23T00:18:22.045Z,90.66
2018-08-23T00:20:50.781Z,90.28
2018-08-23T00:23:20.980Z,91.15
2018-08-23T00:25:49.789Z,90.58
2018-08-23T00:28:19.959Z,90.82
2018-08-23T00:30:48.457Z,90.70
2018-08-23T00:33:17.770Z,90.07
2018-08-23T00:35:47.029Z,90.74
2018-08-23T00:38:16.302Z,90.57
2018-08-23T00:40:47.613Z,91.12
2018-08-23T00:43:16.087Z,91.22
2018-08-23T00:45:44.902Z,90.50
2018-08-23T00:48:13.961Z,91.48
2018-08-23T00:50:52.792Z,92.71
2018-08-23T00:53:23.473Z,92.29
2018-08-23T00:56:04.722Z,92.42
2018-08-23T00:58:34.610Z,92.66
2018-08-23T01:01:04.656Z,93.09
2018-08-23T01:03:35.757Z,93.13
2018-08-23T01:06:09.085Z,92.88
2018-08-23T01:08:37.509Z,93.03
2018-08-23T01:11:08.511Z,93.69
2018-08-23T01:13:37.433Z,93.29
2018-08-23T01:16:06.676Z,93.56
2018-08-23T01:18:38.085Z,93.55
2018-08-23T01:21:08.844Z,93.57
2018-08-23T01:23:38.037Z,94.58
2018-08-23T01:26:08.179Z,94.58
2018-08-23T01:28:37.339Z,94.06
2018-08-23T01:31:21.817Z,93.71
2018-08-23T01:33:54.084Z,93.68
2018-08-23T01:36:27.837Z,94.17
2018-08-23T01:38:57.518Z,94.73
2018-08-23T01:41:26.230Z,94.94
2018-08-23T01:43:55.482Z,94.61
2018-08-23T01:46:31.505Z,95.14
2018-08-23T01:49:02.351Z,95.25
2018-08-23T01:51:32.463Z,95.40
2018-08-23T01:54:01.045Z,96.20
2018-08-23T01:56:30.299Z,95.90
2018-08-23T01:58:58.946Z,97.03
2018-08-23T02:01:28.226Z,97.08
2018-08-23T02:03:57.216Z,96.04
2018-08-23T02:06:32.196Z,95.97
2018-08-23T02:09:01.893Z,95.83
2018-08-23T02:11:31.357Z,95.86
2018-08-23T02:14:00.534Z,96.04
2018-08-23T02:16:39.240Z,95.84
2018-08-23T02:19:08.400Z,96.32
2018-08-23T02:21:37.078Z,96.56
2018-08-23T02:24:07.469Z,96.96
2018-08-23T02:26:36.457Z,97.46
2018-08-23T02:29:05.959Z,98.14
2018-08-23T02:31:36.063Z,98.31
2018-08-23T02:34:04.576Z,98.02
2018-08-23T02:36:36.517Z,97.70
2018-08-23T02:39:09.631Z,97.78
2018-08-23T02:41:42.073Z,96.47
2018-08-23T02:44:12.134Z,96.95
2018-08-23T02:46:42.062Z,97.35
2018-08-23T02:49:13.234Z,97.48
2018-08-23T02:51:47.203Z,98.10
2018-08-23T02:54:16.497Z,98.53
2018-08-23T02:56:50.603Z,98.20
2018-08-23T02:59:19.658Z,98.33
2018-08-23T03:01:51.097Z,98.26
2018-08-23T03:04:26.277Z,98.45
2018-08-23T03:07:04.860Z,98.05
2018-08-23T03:09:36.533Z,98.75
2018-08-23T03:12:11.282Z,99.44
2018-08-23T03:14:41.216Z,99.58
2018-08-23T03:17:17.241Z,99.25
2018-08-23T03:20:10.101Z,99.16
2018-08-23T03:22:40.545Z,99.05
2018-08-23T03:25:12.010Z,99.37
2018-08-23T03:27:45.702Z,98.85
2018-08-23T03:30:17.027Z,99.62
2018-08-23T03:32:46.381Z,99.21
2018-08-23T03:35:15.777Z,99.68
2018-08-23T03:37:44.831Z,100.00
2018-08-23T03:40:15.289Z,100.00
2018-08-23T03:42:44.917Z,100.00
2018-08-23T03:45:19.793Z,100.00
2018-08-23T03:47:51.945Z,100.00
2018-08-23T03:50:21.917Z,100.00
2018-08-23T03:52:53.375Z,100.00
2018-08-23T03:55:24.697Z,100.00
2018-08-23T03:57:58.725Z,100.00
2018-08-23T04:00:33.245Z,100.00
2018-08-23T04:03:03.514Z,100.00
2018-08-23T04:05:32.709Z,100.00
2018-08-23T04:08:01.718Z,100.00
2018-08-23T04:10:31.201Z,100.00
2018-08-23T04:13:00.549Z,100.00
2018-08-23T04:15:30.524Z,100.00
2018-08-23T04:18:02.951Z,100.00
2018-08-23T04:20:31.406Z,98.86
2018-08-23T04:22:59.778Z,99.84
2018-08-23T04:25:28.169Z,100.00
2018-08-23T04:27:56.546Z,100.00
2018-08-23T04:30:24.925Z,100.00
2018-08-23T04:32:53.301Z,100.00
2018-08-23T04:35:24.803Z,100.00
2018-08-23T04:37:53.171Z,100.00
2018-08-23T04:40:21.544Z,100.00
2018-08-23T04:42:49.977Z,100.00
2018-08-23T04:45:23.417Z,100.00
2018-08-23T04:47:57.159Z,100.00
2018-08-23T04:50:26.114Z,100.00
2018-08-23T04:52:54.637Z,100.00
2018-08-23T04:55:23.411Z,100.00
2018-08-23T04:57:51.895Z,100.00
2018-08-23T05:00:20.321Z,100.00
2018-08-23T05:02:48.734Z,100.00
2018-08-23T05:05:17.210Z,100.00
2018-08-23T05:07:45.674Z,100.00
2018-08-23T05:10:14.258Z,100.00
2018-08-23T05:12:42.849Z,99.97
2018-08-23T05:15:11.361Z,100.00
2018-08-23T05:17:39.813Z,100.00
2018-08-23T05:20:08.598Z,99.82
2018-08-23T05:22:37.026Z,98.89
2018-08-23T05:25:14.261Z,98.73
2018-08-23T05:27:59.121Z,98.14
2018-08-23T05:30:28.700Z,97.58
2018-08-23T05:33:02.437Z,97.62
2018-08-23T05:35:31.522Z,97.63
2018-08-23T05:38:00.618Z,97.39
2018-08-23T05:40:33.596Z,98.89
2018-08-23T05:43:02.057Z,98.99
2018-08-23T05:45:35.865Z,99.96
2018-08-23T05:48:20.118Z,99.14
2018-08-23T05:50:48.571Z,99.56
2018-08-23T05:53:18.000Z,98.92
2018-08-23T05:55:48.982Z,98.91
2018-08-23T05:58:23.497Z,98.86
2018-08-23T06:00:52.108Z,98.39
2018-08-23T06:03:26.954Z,98.35
2018-08-23T06:05:56.359Z,97.70
2018-08-23T06:08:24.885Z,96.06
2018-08-23T06:10:58.530Z,95.55
2018-08-23T06:13:26.942Z,95.83
2018-08-23T06:15:56.622Z,95.65
2018-08-23T06:18:25.920Z,95.39
2018-08-23T06:20:54.357Z,94.35
2018-08-23T06:23:27.245Z,93.67
2018-08-23T06:25:55.650Z,93.11
2018-08-23T06:28:26.886Z,92.62
2018-08-23T06:30:56.209Z,92.54
2018-08-23T06:33:36.429Z,91.88
2018-08-23T06:36:04.981Z,90.58
2018-08-23T06:38:34.534Z,90.47
2018-08-23T06:41:04.276Z,89.21
2018-08-23T06:43:33.421Z,88.23
2018-08-23T06:46:02.575Z,87.03
2018-08-23T06:48:31.330Z,86.80
2018-08-23T06:51:00.933Z,86.60
2018-08-23T06:53:39.409Z,86.55
2018-08-23T06:56:07.957Z,85.17
2018-08-23T06:58:36.462Z,86.03
2018-08-23T07:01:09.019Z,84.48
2018-08-23T07:03:51.013Z,84.08
2018-08-23T07:06:20.105Z,82.63
2018-08-23T07:08:48.533Z,82.12
2018-08-23T07:11:21.921Z,82.08
2018-08-23T07:13:56.370Z,82.13
2018-08-23T07:16:24.947Z,81.63
2018-08-23T07:18:53.445Z,80.71
2018-08-23T07:21:21.952Z,81.03
2018-08-23T07:23:50.318Z,81.28
2018-08-23T07:26:18.801Z,81.02
2018-08-23T07:28:47.265Z,80.67
2018-08-23T07:31:15.657Z,80.28
2018-08-23T07:33:46.124Z,79.75
2018-08-23T07:36:26.955Z,79.79
2018-08-23T07:38:55.580Z,79.18
2018-08-23T07:41:23.966Z,79.16
2018-08-23T07:43:52.429Z,78.95
2018-08-23T07:46:29.715Z,79.01
2018-08-23T07:48:58.409Z,78.64
2018-08-23T07:51:26.819Z,78.66
2018-08-23T07:53:57.649Z,77.27
2018-08-23T07:56:28.197Z,74.81
2018-08-23T07:58:57.663Z,74.15
2018-08-23T08:01:31.105Z,72.92
2018-08-23T08:04:00.295Z,72.63
2018-08-23T08:06:29.243Z,72.92
2018-08-23T08:08:59.197Z,72.28
2018-08-23T08:11:29.795Z,72.09
2018-08-23T08:14:13.323Z,71.96
2018-08-23T08:16:41.741Z,72.96
2018-08-23T08:19:10.156Z,72.05
2018-08-23T08:21:38.622Z,71.56
2018-08-23T08:24:06.991Z,71.90
2018-08-23T08:26:35.414Z,67.19
2018-08-23T08:29:03.777Z,69.41
2018-08-23T08:31:32.196Z,67.91
2018-08-23T08:34:00.808Z,67.02
2018-08-23T08:36:31.340Z,66.92
2018-08-23T08:39:00.332Z,66.75
2018-08-23T08:41:33.529Z,65.40
2018-08-23T08:44:02.101Z,64.32
2018-08-23T08:46:30.514Z,63.45
2018-08-23T08:48:58.922Z,63.30
2018-08-23T08:51:32.373Z,62.64
2018-08-23T08:54:03.148Z,62.70
2018-08-23T08:56:36.877Z,61.99
2018-08-23T08:59:05.310Z,61.09
2018-08-23T09:01:33.744Z,61.50
2018-08-23T09:04:02.163Z,60.97
2018-08-23T09:06:46.989Z,60.88
2018-08-23T09:09:40.967Z,61.75
2018-08-23T09:12:11.441Z,60.36
2018-08-23T09:14:40.799Z,59.55
2018-08-23T09:17:39.833Z,59.70
2018-08-23T09:20:10.321Z,59.22
2018-08-23T09:22:41.097Z,60.15
2018-08-23T09:25:12.220Z,60.00
2018-08-23T09:27:40.653Z,59.58
2018-08-23T09:30:14.433Z,58.47
2018-08-23T09:32:42.866Z,57.51
2018-08-23T09:35:11.718Z,57.82
2018-08-23T09:37:40.739Z,57.48
2018-08-23T09:40:09.340Z,57.40
2018-08-23T09:42:38.437Z,56.85
2018-08-23T09:45:13.673Z,56.45
2018-08-23T09:47:42.325Z,57.07
2018-08-23T09:50:10.794Z,55.83
2018-08-23T09:52:43.166Z,54.88
2018-08-23T09:55:12.874Z,53.42
2018-08-23T09:57:41.707Z,53.64
2018-08-23T10:00:12.742Z,52.58
2018-08-23T10:02:46.355Z,51.39
2018-08-23T10:05:20.178Z,50.45
2018-08-23T10:07:53.961Z,48.42
2018-08-23T10:10:27.737Z,49.43
2018-08-23T10:13:01.425Z,48.05
2018-08-23T10:15:34.972Z,50.06
2018-08-23T10:18:08.725Z,50.98
2018-08-23T10:20:45.388Z,49.42
2018-08-23T10:23:16.691Z,50.05
2018-08-23T10:25:46.325Z,51.29
2018-08-23T10:28:15.979Z,49.74
2018-08-23T10:30:44.687Z,49.37
2018-08-23T10:33:13.081Z,50.52
2018-08-23T10:35:46.738Z,50.56
2018-08-23T10:38:16.772Z,52.11
2018-08-23T10:40:46.221Z,51.70
2018-08-23T10:43:15.155Z,52.89
2018-08-23T10:45:43.843Z,53.20
2018-08-23T10:48:16.598Z,53.05
2018-08-23T10:50:45.947Z,52.42
2018-08-23T10:53:14.782Z,53.29
2018-08-23T10:55:43.766Z,52.82
2018-08-23T10:58:12.184Z,51.92
2018-08-23T11:00:40.627Z,49.92
2018-08-23T11:03:09.037Z,49.10
2018-08-23T11:05:37.526Z,47.48
2018-08-23T11:08:11.230Z,47.18
2018-08-23T11:10:44.922Z,46.74
2018-08-23T11:13:18.533Z,46.29
2018-08-23T11:15:46.947Z,46.23
2018-08-23T11:18:20.589Z,46.48
2018-08-23T11:20:50.361Z,46.27
2018-08-23T11:23:23.912Z,47.88
2018-08-23T11:25:52.389Z,46.63
2018-08-23T11:28:21.437Z,46.08
2018-08-23T11:30:50.482Z,46.36
2018-08-23T11:33:18.925Z,46.39
2018-08-23T11:35:47.378Z,46.51
2018-08-23T11:38:15.843Z,46.09
2018-08-23T11:40:44.254Z,46.98
2018-08-23T11:43:12.678Z,47.22
2018-08-23T11:45:41.109Z,46.80
2018-08-23T11:48:09.586Z,46.18
2018-08-23T11:50:38.843Z,46.58
2018-08-23T11:53:07.310Z,46.08
2018-08-23T12:00:22.610Z,48.12
2018-08-23T12:02:58.662Z,49.07
2018-08-23T12:05:27.694Z,49.94
2018-08-23T12:07:57.440Z,49.57
2018-08-23T12:10:25.898Z,49.79
2018-08-23T12:13:05.513Z,48.82
2018-08-23T12:15:34.037Z,49.99
2018-08-23T12:18:02.557Z,49.96
2018-08-23T12:20:30.970Z,49.47
2018-08-23T12:22:59.380Z,49.38
2018-08-23T12:25:27.828Z,50.11
2018-08-23T12:28:00.081Z,50.03
2018-08-23T12:30:28.650Z,48.88
2018-08-23T12:32:57.082Z,49.57
2018-08-23T12:35:26.207Z,49.34
2018-08-23T12:38:01.594Z,48.91
2018-08-23T12:40:36.833Z,49.80
2018-08-23T12:43:08.660Z,50.67
2018-08-23T12:45:39.933Z,50.77
2018-08-23T12:48:18.273Z,49.90
2018-08-23T12:50:46.675Z,49.58
2018-08-23T12:53:15.211Z,47.86
2018-08-23T12:55:43.577Z,47.77
2018-08-23T12:58:13.125Z,47.93
2018-08-23T13:00:42.697Z,46.95
2018-08-23T13:03:11.154Z,47.23
2018-08-23T13:05:39.900Z,47.52
2018-08-23T13:08:08.345Z,47.45
2018-08-23T13:10:37.192Z,46.86
2018-08-23T13:13:05.741Z,47.15
2018-08-23T13:15:34.147Z,46.95
2018-08-23T13:18:03.078Z,48.57
2018-08-23T13:20:31.459Z,47.97
2018-08-23T13:22:59.836Z,48.32
2018-08-23T13:25:29.930Z,48.19
2018-08-23T13:27:58.333Z,48.63
2018-08-23T13:30:26.716Z,49.91
2018-08-23T13:32:55.195Z,48.97
2018-08-23T13:35:24.763Z,45.97
2018-08-23T13:37:53.182Z,45.56
2018-08-23T13:40:21.588Z,43.98
2018-08-23T13:42:53.293Z,44.20
2018-08-23T13:45:21.750Z,44.84
2018-08-23T13:47:50.157Z,45.90
2018-08-23T13:50:18.593Z,45.17
2018-08-23T13:52:47.019Z,45.78
2018-08-23T13:55:15.444Z,46.39
2018-08-23T13:57:43.946Z,44.24
2018-08-23T14:00:43.210Z,43.96
2018-08-23T14:03:12.189Z,43.69
2018-08-23T14:05:41.537Z,45.50
2018-08-23T14:08:10.401Z,44.20
2018-08-23T14:13:32.484Z,47.51
2018-08-23T14:16:04.414Z,49.19
2018-08-23T14:18:34.190Z,52.39
2018-08-23T14:21:02.702Z,52.94
2018-08-23T14:23:31.105Z,51.79
2018-08-23T14:25:59.570Z,47.93
2018-08-23T14:28:27.976Z,46.71
2018-08-23T14:30:56.418Z,46.48
2018-08-23T14:33:24.825Z,48.43
2018-08-23T14:35:53.349Z,47.62
2018-08-23T14:38:22.042Z,47.16
2018-08-23T14:40:50.502Z,44.95
2018-08-23T14:43:18.917Z,47.16
2018-08-23T14:45:47.377Z,48.82
2018-08-23T14:48:17.510Z,50.21
2018-08-23T14:50:50.148Z,49.69
2018-08-23T14:53:23.984Z,49.34
2018-08-23T14:55:57.515Z,48.71
2018-08-23T14:58:26.056Z,48.82
2018-08-23T15:00:54.538Z,46.71
2018-08-23T15:03:30.954Z,45.86
2018-08-23T15:05:59.441Z,45.09
2018-08-23T15:08:27.898Z,45.96
2018-08-23T15:10:56.727Z,46.16
2018-08-23T15:13:25.168Z,46.29
2018-08-23T15:15:54.127Z,47.99
2018-08-23T15:18:23.120Z,47.73
2018-08-23T15:20:52.011Z,49.59
2018-08-23T15:23:20.436Z,51.18
2018-08-23T15:25:48.894Z,50.45
2018-08-23T15:28:17.347Z,50.41
2018-08-23T15:30:45.793Z,49.78
2018-08-23T15:33:14.215Z,49.37
2018-08-23T15:35:42.717Z,51.64
2018-08-23T15:38:11.194Z,52.91
2018-08-23T15:40:39.635Z,53.85
2018-08-23T15:43:08.050Z,54.60
2018-08-23T15:45:36.518Z,54.80
2018-08-23T15:48:05.304Z,55.36
2018-08-23T15:50:33.697Z,53.45
2018-08-23T15:53:02.086Z,53.89
2018-08-23T15:55:30.556Z,53.63
2018-08-23T15:57:58.906Z,52.78
2018-08-23T16:00:31.427Z,53.57
2018-08-23T16:02:59.799Z,53.00
2018-08-23T16:05:28.194Z,53.54
2018-08-23T16:07:56.574Z,52.55
2018-08-23T16:10:25.049Z,53.88
2018-08-23T16:12:53.362Z,53.63
2018-08-23T16:15:23.409Z,54.77
2018-08-23T16:17:57.278Z,54.73
2018-08-23T16:20:30.947Z,55.40
2018-08-23T16:22:59.321Z,54.10
2018-08-23T16:25:27.755Z,54.38
2018-08-23T16:27:56.097Z,55.40
2018-08-23T16:30:24.529Z,56.02
2018-08-23T16:32:52.917Z,58.08
2018-08-23T16:35:21.303Z,58.82
2018-08-23T16:37:49.712Z,58.51
2018-08-23T16:40:23.377Z,59.39
2018-08-23T16:42:51.805Z,60.15
2018-08-23T16:45:20.190Z,59.84
2018-08-23T16:47:48.623Z,60.70
2018-08-23T16:50:16.993Z,60.45
2018-08-23T16:52:45.441Z,61.32
2018-08-23T16:55:13.814Z,61.59
2018-08-23T16:57:42.216Z,61.97
2018-08-23T17:00:10.626Z,61.85
2018-08-23T17:02:39.226Z,62.95
2018-08-23T17:05:07.597Z,64.10
2018-08-23T17:07:36.017Z,63.34
2018-08-23T17:10:04.522Z,64.03
2018-08-23T17:12:32.886Z,63.53
2018-08-23T17:15:01.614Z,63.86
2018-08-23T17:17:31.941Z,63.73
2018-08-23T17:20:00.319Z,63.55
2018-08-23T17:22:29.453Z,64.59
2018-08-23T17:24:57.986Z,64.68
2018-08-23T17:27:26.653Z,64.40
2018-08-23T17:29:55.047Z,64.74
2018-08-23T17:32:23.913Z,64.94
2018-08-23T17:34:53.779Z,64.64
2018-08-23T17:37:22.529Z,65.35
2018-08-23T17:39:51.836Z,65.06
2018-08-23T17:42:25.309Z,65.28
2018-08-23T17:44:53.878Z,65.44
2018-08-23T17:47:28.918Z,65.52
2018-08-23T17:49:57.829Z,65.74
2018-08-23T17:52:27.291Z,65.90
2018-08-23T17:54:56.024Z,66.08
2018-08-23T17:57:25.103Z,66.24
2018-08-23T17:59:56.184Z,66.36
2018-08-23T18:02:24.934Z,67.11
2018-08-23T18:04:54.118Z,67.32
2018-08-23T18:07:23.134Z,67.32
2018-08-23T18:09:54.111Z,67.58
2018-08-23T18:12:23.621Z,67.58
2018-08-23T18:14:52.539Z,67.71
2018-08-23T18:17:21.818Z,68.09
2018-08-23T18:19:50.622Z,68.20
2018-08-23T18:22:24.620Z,68.69
2018-08-23T18:24:53.378Z,68.75
2018-08-23T18:27:23.195Z,68.79
2018-08-23T18:29:56.660Z,69.09
2018-08-23T18:32:26.376Z,69.14
2018-08-23T18:34:55.905Z,69.47
2018-08-23T18:37:24.739Z,69.67
2018-08-23T18:39:57.068Z,69.99
2018-08-23T18:42:25.914Z,70.20
2018-08-23T18:44:55.997Z,70.51
2018-08-23T18:47:25.850Z,70.66
2018-08-23T18:49:55.989Z,70.74
2018-08-23T18:52:25.126Z,71.13
2018-08-23T18:54:53.965Z,71.69
2018-08-23T18:57:23.766Z,71.68
2018-08-23T18:59:53.703Z,71.74
2018-08-23T19:02:24.840Z,71.95
2018-08-23T19:04:54.453Z,72.25
2018-08-23T19:07:28.882Z,72.62
2018-08-23T19:10:00.942Z,73.02
2018-08-23T19:12:30.929Z,73.01
2018-08-23T19:15:01.323Z,73.30
2018-08-23T19:17:36.396Z,73.69
2018-08-23T19:20:06.697Z,74.15
2018-08-23T19:22:35.725Z,74.25
2018-08-23T19:25:04.962Z,73.94
2018-08-23T19:27:34.063Z,74.39
2018-08-23T19:30:03.288Z,74.65
2018-08-23T19:32:32.085Z,74.83
2018-08-23T19:35:01.140Z,75.07
2018-08-23T19:37:29.973Z,75.19
2018-08-23T19:39:58.574Z,75.27
2018-08-23T19:42:27.989Z,75.84
2018-08-23T19:45:01.358Z,75.67
2018-08-23T19:47:35.101Z,75.35
2018-08-23T19:50:08.062Z,75.52
2018-08-23T19:52:37.644Z,76.46
2018-08-23T19:55:07.634Z,76.54
2018-08-23T19:57:50.295Z,77.24
2018-08-23T20:00:20.366Z,77.82
2018-08-23T20:02:49.617Z,78.44
2018-08-23T20:05:24.067Z,77.97
2018-08-23T20:07:52.632Z,78.04
2018-08-23T20:10:21.978Z,79.08
2018-08-23T20:12:51.154Z,78.69
2018-08-23T20:15:24.789Z,79.86
2018-08-23T20:17:57.126Z,79.37
2018-08-23T20:20:26.590Z,78.80
2018-08-23T20:22:56.423Z,78.12
2018-08-23T20:25:27.407Z,78.48
2018-08-23T20:27:56.108Z,77.94
2018-08-23T20:30:25.086Z,78.70
2018-08-23T20:32:54.376Z,77.71
2018-08-23T20:35:23.838Z,79.18
2018-08-23T20:37:52.518Z,78.65
2018-08-23T20:40:22.686Z,78.74
2018-08-23T20:42:52.198Z,79.55
2018-08-23T20:45:20.766Z,79.26
2018-08-23T20:47:50.563Z,79.01
2018-08-23T20:50:19.475Z,79.86
2018-08-23T20:52:48.502Z,79.79
2018-08-23T20:55:17.637Z,80.41
2018-08-23T20:57:46.366Z,81.19
2018-08-23T21:00:21.681Z,80.74
2018-08-23T21:02:50.565Z,81.13
2018-08-23T21:05:20.750Z,81.62
2018-08-23T21:07:49.956Z,80.73
2018-08-23T21:10:19.914Z,80.24
2018-08-23T21:12:50.765Z,80.81
2018-08-23T21:15:20.550Z,81.26
2018-08-23T21:17:49.725Z,81.79
2018-08-23T21:20:22.624Z,81.43
2018-08-23T21:22:51.902Z,81.67
2018-08-23T21:25:20.499Z,81.95
2018-08-23T21:27:49.943Z,82.30
2018-08-23T21:30:20.003Z,82.67
2018-08-23T21:32:49.210Z,82.78
2018-08-23T21:35:18.069Z,82.60
2018-08-23T21:37:47.718Z,82.61
2018-08-23T21:40:17.350Z,82.58
2018-08-23T21:42:45.922Z,82.90
2018-08-23T21:45:15.565Z,83.25
2018-08-23T21:47:45.229Z,83.30
2018-08-23T21:50:15.198Z,82.30
2018-08-23T21:52:45.057Z,81.72
2018-08-23T21:55:14.349Z,81.66
2018-08-23T21:57:43.413Z,82.09
2018-08-23T22:00:12.725Z,81.72
2018-08-23T22:02:43.903Z,81.80
2018-08-23T22:05:13.301Z,82.47
2018-08-23T22:07:42.556Z,82.89
2018-08-23T22:10:18.785Z,83.57
2018-08-23T22:12:52.066Z,83.96
2018-08-23T22:15:21.309Z,84.15
2018-08-23T22:17:51.086Z,84.10
2018-08-23T22:20:20.840Z,84.46
2018-08-23T22:22:49.985Z,84.55
2018-08-23T22:25:19.217Z,83.83
2018-08-23T22:27:47.654Z,83.82
2018-08-23T22:30:16.352Z,84.19
2018-08-23T22:32:45.385Z,84.41
2018-08-23T22:35:32.625Z,84.31
2018-08-23T22:38:02.532Z,85.93
2018-08-23T22:40:31.548Z,85.62
2018-08-23T22:43:01.910Z,86.99
2018-08-23T22:45:35.744Z,86.73
2018-08-23T22:48:05.809Z,86.83
2018-08-23T22:50:34.490Z,87.73
2018-08-23T22:53:03.139Z,88.08
2018-08-23T22:55:32.389Z,87.74
2018-08-23T22:58:01.285Z,86.58
2018-08-23T23:00:36.058Z,87.60
2018-08-23T23:03:09.969Z,87.24
2018-08-23T23:05:43.049Z,87.89
2018-08-23T23:08:12.353Z,87.53
2018-08-23T23:10:41.329Z,87.16
2018-08-23T23:13:10.086Z,87.79
2018-08-23T23:15:39.605Z,87.20
2018-08-23T23:18:08.777Z,88.26
2018-08-23T23:20:37.296Z,88.21
2018-08-23T23:23:05.989Z,86.36
2018-08-23T23:25:35.582Z,86.16
2018-08-23T23:28:04.428Z,85.63
2018-08-23T23:30:33.836Z,85.23
2018-08-23T23:33:02.460Z,85.39
2018-08-23T23:35:31.640Z,85.75
2018-08-23T23:38:00.886Z,85.37
2018-08-23T23:40:30.197Z,85.69
2018-08-23T23:42:58.830Z,85.11
2018-08-23T23:45:28.565Z,85.48
2018-08-23T23:47:58.202Z,84.88
2018-08-23T23:50:26.857Z,84.36
2018-08-23T23:52:55.954Z,84.02
2018-08-23T23:55:25.289Z,83.92
2018-08-23T23:57:53.998Z,83.94
